Time;durP1;ratioP1;P1;durP2;ratioP2;P2;SDS_P1;SDS_P2;PMS_P1;PMS_P2;Temp;Humidity;BMP_temperature;BMP_pressure;BME280_temperature;BME280_humidity;BME280_pressure;Samples;Min_cycle;Max_cycle;Signal;HPM_P1;HPM_P2
2022/07/22 00:00:35;;;;;;;4.70;3.43;;;24.10;99.90;;;;;;5241573;28;20021;-62
2022/07/22 00:03:06;;;;;;;3.13;2.65;;;24.10;99.90;;;;;;5206049;28;20024;-60
2022/07/22 00:05:40;;;;;;;3.03;2.53;;;24.10;99.90;;;;;;5238979;28;20035;-62
2022/07/22 00:08:16;;;;;;;5.50;2.83;;;24.10;99.90;;;;;;5228941;28;20040;-61
2022/07/22 00:10:47;;;;;;;3.95;2.80;;;24.10;99.90;;;;;;5221498;28;20320;-62
2022/07/22 00:13:18;;;;;;;3.97;3.03;;;24.00;99.90;;;;;;5257942;28;20178;-62
2022/07/22 00:15:52;;;;;;;8.90;3.42;;;24.00;99.90;;;;;;5220266;28;20035;-62
2022/07/22 00:18:30;;;;;;;3.78;3.15;;;23.90;99.90;;;;;;5213821;28;20234;-60
2022/07/22 00:21:01;;;;;;;3.83;2.50;;;24.00;99.90;;;;;;5230653;28;20205;-61
2022/07/22 00:23:32;;;;;;;3.72;2.92;;;23.90;99.90;;;;;;5238436;28;20029;-62
2022/07/22 00:26:06;;;;;;;5.93;3.10;;;23.80;99.90;;;;;;5251288;28;20046;-62
2022/07/22 00:28:37;;;;;;;;;;;23.70;99.90;;;;;;5265405;28;20038;-62
2022/07/22 00:31:09;;;;;;;3.63;3.20;;;23.70;99.90;;;;;;5256939;28;20085;-62
2022/07/22 00:33:42;;;;;;;5.13;3.40;;;23.60;99.90;;;;;;5243934;28;20034;-61
2022/07/22 00:36:22;;;;;;;6.73;3.53;;;23.60;99.90;;;;;;5242984;28;20024;-61
2022/07/22 00:38:53;;;;;;;4.75;3.35;;;23.60;99.90;;;;;;5244893;28;20012;-61
2022/07/22 00:41:31;;;;;;;4.15;3.03;;;23.60;99.90;;;;;;5243431;28;20032;-62
2022/07/22 00:44:05;;;;;;;4.55;3.50;;;23.60;99.90;;;;;;5245129;28;20038;-62
2022/07/22 00:46:39;;;;;;;3.38;3.03;;;23.50;99.90;;;;;;5222445;28;20032;-61
2022/07/22 00:49:10;;;;;;;9.18;2.80;;;23.50;99.90;;;;;;5237945;28;20025;-61
2022/07/22 00:51:41;;;;;;;4.28;2.95;;;23.40;99.90;;;;;;5241419;28;20021;-62
2022/07/22 00:54:15;;;;;;;3.33;3.03;;;23.40;99.90;;;;;;5241965;28;20020;-61
2022/07/22 00:56:47;;;;;;;5.10;3.78;;;23.20;99.90;;;;;;5243137;28;20346;-61
2022/07/22 00:59:19;;;;;;;4.72;3.40;;;23.20;99.90;;;;;;5207443;28;20029;-62
2022/07/22 01:01:51;;;;;;;4.45;2.97;;;23.10;99.90;;;;;;5240988;28;20225;-62
2022/07/22 01:04:24;;;;;;;3.30;2.90;;;23.10;99.90;;;;;;5231404;28;20033;-62
2022/07/22 01:07:05;;;;;;;6.85;3.17;;;23.00;99.90;;;;;;5224801;28;20036;-61
2022/07/22 01:09:39;;;;;;;3.97;3.03;;;23.00;99.90;;;;;;5226705;28;20033;-61
2022/07/22 01:12:12;;;;;;;4.85;3.00;;;23.00;99.90;;;;;;5240475;28;20036;-60
2022/07/22 01:14:48;;;;;;;5.90;3.10;;;22.90;99.90;;;;;;5234435;28;20032;-61
2022/07/22 01:17:21;;;;;;;4.95;3.50;;;22.90;99.90;;;;;;5230296;28;20229;-61
2022/07/22 01:20:03;;;;;;;4.18;3.05;;;22.90;99.90;;;;;;5226998;28;20261;-61
2022/07/22 01:22:34;;;;;;;5.13;3.22;;;22.90;99.90;;;;;;5207111;28;20024;-61
2022/07/22 01:25:06;;;;;;;4.53;3.28;;;22.80;99.90;;;;;;5206005;28;20025;-61
2022/07/22 01:27:37;;;;;;;4.15;2.88;;;22.70;99.90;;;;;;5241414;28;20022;-61
2022/07/22 01:30:11;;;;;;;3.25;2.65;;;22.60;99.90;;;;;;5241184;28;20023;-62
2022/07/22 01:32:48;;;;;;;6.32;3.20;;;22.60;99.90;;;;;;5240096;28;20221;-61
2022/07/22 01:35:25;;;;;;;4.47;3.45;;;22.60;99.90;;;;;;5241489;28;20035;-61
2022/07/22 01:37:56;;;;;;;6.95;3.08;;;22.60;99.90;;;;;;5239065;28;20021;-61
2022/07/22 01:40:34;;;;;;;3.47;2.85;;;22.60;99.90;;;;;;5223188;28;20023;-61
2022/07/22 01:43:08;;;;;;;5.85;2.80;;;22.50;99.90;;;;;;5236147;28;20039;-60
2022/07/22 01:45:39;;;;;;;4.40;3.13;;;22.50;99.90;;;;;;5236380;28;20020;-61
2022/07/22 01:48:14;;;;;;;9.15;3.47;;;22.40;99.90;;;;;;5241452;28;20029;-62
2022/07/22 01:50:48;;;;;;;4.40;3.15;;;22.40;99.90;;;;;;5222775;28;20302;-61
2022/07/22 01:53:20;;;;;;;4.25;3.40;;;22.30;99.90;;;;;;5221169;28;20313;-61
2022/07/22 01:55:54;;;;;;;5.28;3.10;;;22.20;99.90;;;;;;5241259;28;20213;-62
2022/07/22 01:58:27;;;;;;;3.90;2.97;;;22.30;99.90;;;;;;5241891;28;20246;-61
2022/07/22 02:01:01;;;;;;;6.60;3.03;;;22.30;99.90;;;;;;5242375;28;20024;-61
2022/07/22 02:03:36;;;;;;;5.22;3.63;;;22.20;99.90;;;;;;5240424;28;20075;-61
2022/07/22 02:06:07;;;;;;;4.88;3.22;;;22.20;99.90;;;;;;5237997;28;20173;-62
2022/07/22 02:08:39;;;;;;;4.78;3.15;;;22.30;99.90;;;;;;5261678;28;20016;-60
2022/07/22 02:11:10;;;;;;;4.30;3.55;;;22.20;99.90;;;;;;5215347;28;20031;-62
2022/07/22 02:13:47;;;;;;;3.53;3.17;;;22.20;99.90;;;;;;5201419;28;20025;-62
2022/07/22 02:16:20;;;;;;;4.97;3.58;;;22.20;99.90;;;;;;5201864;28;20025;-62
2022/07/22 02:18:52;;;;;;;3.25;2.67;;;22.20;99.90;;;;;;5202764;28;21146;-62
2022/07/22 02:21:23;;;;;;;3.92;2.92;;;22.20;99.90;;;;;;5219001;28;20029;-61
2022/07/22 02:23:55;;;;;;;3.63;3.13;;;22.10;99.90;;;;;;5220670;28;20029;-61
2022/07/22 02:26:28;;;;;;;5.18;3.58;;;22.10;99.90;;;;;;5219496;28;20025;-61
2022/07/22 02:29:00;;;;;;;3.80;2.95;;;22.00;99.90;;;;;;5219442;28;20031;-61
2022/07/22 02:31:31;;;;;;;4.20;3.28;;;21.90;99.90;;;;;;5218850;28;20036;-62
2022/07/22 02:34:07;;;;;;;3.78;3.10;;;21.90;99.90;;;;;;5203122;28;20039;-62
2022/07/22 02:36:38;;;;;;;4.13;3.58;;;21.90;99.90;;;;;;5222943;28;20290;-62
2022/07/22 02:39:09;;;;;;;4.80;3.72;;;21.80;99.90;;;;;;5216937;28;20025;-61
2022/07/22 02:41:51;;;;;;;4.95;3.03;;;21.70;99.90;;;;;;5198058;28;20035;-62
2022/07/22 02:44:28;;;;;;;6.13;3.65;;;21.60;99.90;;;;;;5219567;28;20028;-62
2022/07/22 02:47:00;;;;;;;4.65;3.97;;;21.40;99.90;;;;;;5217509;28;20029;-62
2022/07/22 02:49:33;;;;;;;5.03;4.07;;;21.40;99.90;;;;;;5201588;28;20291;-62
2022/07/22 02:52:07;;;;;;;5.57;3.70;;;21.30;99.90;;;;;;5220514;28;20021;-63
2022/07/22 02:54:41;;;;;;;3.73;3.33;;;21.30;99.90;;;;;;5197740;28;20024;-62
2022/07/22 02:57:12;;;;;;;4.70;3.72;;;21.20;99.90;;;;;;5183505;28;20262;-62
2022/07/22 02:59:46;;;;;;;7.18;3.47;;;21.20;99.90;;;;;;5216121;28;20028;-62
2022/07/22 03:02:17;;;;;;;4.18;3.42;;;21.20;99.90;;;;;;5219354;28;20021;-61
2022/07/22 03:04:48;;;;;;;7.95;3.38;;;21.30;99.90;;;;;;5192445;28;20111;-60
2022/07/22 03:07:22;;;;;;;3.90;3.50;;;21.30;99.90;;;;;;5217707;28;20031;-62
2022/07/22 03:09:55;;;;;;;4.18;3.33;;;21.40;99.90;;;;;;5208403;28;20021;-61
2022/07/22 03:12:34;;;;;;;6.65;4.15;;;21.40;99.90;;;;;;5198765;28;20033;-61
2022/07/22 03:15:07;;;;;;;4.63;3.47;;;21.40;99.90;;;;;;5179393;28;20021;-61
2022/07/22 03:17:38;;;;;;;5.32;3.80;;;21.40;99.90;;;;;;5176733;28;20035;-60
2022/07/22 03:20:10;;;;;;;4.80;3.75;;;21.20;99.90;;;;;;5213385;28;20042;-61
2022/07/22 03:22:42;;;;;;;4.38;3.13;;;21.20;99.90;;;;;;5217779;28;20055;-62
2022/07/22 03:25:13;;;;;;;6.55;3.25;;;21.20;99.90;;;;;;5199337;28;20242;-61
2022/07/22 03:27:44;;;;;;;5.05;3.70;;;21.10;99.90;;;;;;5201561;28;20021;-61
2022/07/22 03:30:18;;;;;;;3.90;3.50;;;21.20;99.90;;;;;;5199904;28;20222;-61
2022/07/22 03:32:53;;;;;;;7.05;4.07;;;21.20;99.90;;;;;;5203642;28;20020;-62
2022/07/22 03:35:29;;;;;;;6.07;3.38;;;21.20;99.90;;;;;;5218988;28;20221;-62
2022/07/22 03:38:02;;;;;;;5.40;3.38;;;21.30;99.90;;;;;;5206598;28;20180;-62
2022/07/22 03:40:33;;;;;;;7.32;4.30;;;21.30;99.90;;;;;;5186619;28;20037;-63
2022/07/22 03:43:06;;;;;;;5.13;3.55;;;21.40;99.90;;;;;;5182918;28;20040;-62
2022/07/22 03:45:40;;;;;;;5.13;3.27;;;21.40;99.90;;;;;;5181689;28;20035;-62
2022/07/22 03:48:11;;;;;;;6.32;3.85;;;21.40;99.90;;;;;;5178216;28;20032;-62
2022/07/22 03:50:43;;;;;;;7.55;4.55;;;21.40;99.90;;;;;;5197113;28;20029;-61
2022/07/22 03:53:14;;;;;;;6.97;4.07;;;21.50;99.90;;;;;;5187311;28;20029;-62
2022/07/22 03:55:53;;;;;;;5.00;3.50;;;21.50;99.90;;;;;;5194872;28;20038;-61
2022/07/22 03:58:27;;;;;;;5.57;4.03;;;21.50;99.90;;;;;;5198457;28;20043;-61
2022/07/22 04:01:01;;;;;;;;;;;21.60;99.90;;;;;;5217367;28;20031;-61
2022/07/22 04:03:35;;;;;;;4.80;3.83;;;21.70;99.90;;;;;;5215992;28;20074;-63
2022/07/22 04:06:22;;;;;;;4.87;3.90;;;21.70;99.90;;;;;;5170207;28;20046;-61
2022/07/22 04:08:55;;;;;;;5.60;3.50;;;21.80;99.90;;;;;;5214337;28;20262;-61
2022/07/22 04:11:27;;;;;;;4.30;3.78;;;21.90;99.90;;;;;;5189517;28;1239867;-62
2022/07/22 04:13:58;;;;;;;4.78;3.65;;;21.90;99.90;;;;;;5239413;28;20236;-62
2022/07/22 04:16:35;;;;;;;4.53;3.28;;;22.00;99.90;;;;;;5238764;28;20020;-62
2022/07/22 04:19:09;;;;;;;5.68;3.67;;;22.10;99.90;;;;;;5238947;28;20317;-63
2022/07/22 04:21:41;;;;;;;;;;;22.30;99.90;;;;;;5241398;28;20108;-62
2022/07/22 04:24:12;;;;;;;4.28;3.60;;;22.40;99.90;;;;;;5241664;28;19901;-63
2022/07/22 04:26:44;;;;;;;4.85;3.65;;;22.50;99.90;;;;;;5239255;28;20024;-61
2022/07/22 04:29:15;;;;;;;5.68;4.00;;;22.50;99.90;;;;;;5238653;28;20031;-62
2022/07/22 04:31:49;;;;;;;4.40;3.90;;;22.60;99.90;;;;;;5244811;28;20043;-61
2022/07/22 04:34:23;;;;;;;6.35;3.65;;;22.80;99.90;;;;;;5216921;28;20185;-62
2022/07/22 04:36:54;;;;;;;4.68;3.65;;;22.80;99.90;;;;;;5218767;28;20306;-61
2022/07/22 04:39:31;;;;;;;6.85;3.55;;;22.80;99.90;;;;;;5239229;28;20024;-60
2022/07/22 04:42:05;;;;;;;5.15;3.90;;;23.00;99.90;;;;;;5222513;28;20020;-60
2022/07/22 04:44:37;;;;;;;4.55;3.45;;;23.00;99.90;;;;;;5236717;28;20021;-61
2022/07/22 04:47:10;;;;;;;4.85;3.63;;;23.00;99.90;;;;;;5223407;28;20025;-61
2022/07/22 04:49:41;;;;;;;5.57;3.78;;;23.00;99.90;;;;;;5223027;28;20046;-61
2022/07/22 04:52:13;;;;;;;4.15;3.60;;;23.10;99.90;;;;;;5221829;28;20032;-61
2022/07/22 04:54:44;;;;;;;4.82;3.67;;;23.20;99.90;;;;;;5238240;28;20017;-61
2022/07/22 04:57:15;;;;;;;4.57;3.42;;;23.30;99.90;;;;;;5222696;28;20177;-61
2022/07/22 04:59:46;;;;;;;5.82;3.92;;;23.40;99.90;;;;;;5239267;28;20016;-62
2022/07/22 05:02:21;;;;;;;6.13;4.28;;;23.50;99.90;;;;;;5238443;28;20039;-61
2022/07/22 05:04:52;;;;;;;4.70;3.85;;;23.50;99.90;;;;;;5217459;28;20039;-61
2022/07/22 05:07:25;;;;;;;4.53;4.13;;;23.60;99.90;;;;;;5220383;28;20069;-61
2022/07/22 05:09:56;;;;;;;5.67;4.40;;;23.80;99.90;;;;;;5230469;28;20021;-61
2022/07/22 05:12:28;;;;;;;4.55;3.70;;;24.00;99.90;;;;;;5222226;28;20585;-63
2022/07/22 05:15:04;;;;;;;5.38;3.95;;;24.30;99.90;;;;;;5243021;28;20027;-62
2022/07/22 05:17:39;;;;;;;4.97;3.55;;;24.40;99.90;;;;;;5244865;28;20024;-62
2022/07/22 05:20:11;;;;;;;5.60;3.75;;;24.60;99.90;;;;;;5242753;28;20024;-62
2022/07/22 05:22:48;;;;;;;5.68;3.63;;;24.40;99.90;;;;;;5242534;28;20297;-61
2022/07/22 05:25:19;;;;;;;4.72;3.78;;;24.60;99.90;;;;;;5223726;28;20221;-62
2022/07/22 05:27:55;;;;;;;4.82;3.70;;;24.60;99.90;;;;;;5240302;28;20051;-63
2022/07/22 05:30:31;;;;;;;4.40;3.78;;;24.70;99.90;;;;;;5225840;28;20217;-63
2022/07/22 05:33:07;;;;;;;4.68;3.63;;;24.70;99.90;;;;;;5239006;28;20070;-61
2022/07/22 05:35:39;;;;;;;4.45;3.65;;;24.80;99.90;;;;;;5241231;28;20316;-62
2022/07/22 05:38:16;;;;;;;5.95;3.75;;;24.70;99.90;;;;;;5241289;28;20034;-61
2022/07/22 05:40:50;;;;;;;6.10;3.58;;;24.80;99.90;;;;;;5224768;28;20024;-61
2022/07/22 05:43:21;;;;;;;5.85;3.83;;;24.80;99.90;;;;;;5222692;28;20033;-62
2022/07/22 05:45:55;;;;;;;5.60;4.30;;;25.00;99.90;;;;;;5242108;28;20028;-61
2022/07/22 05:48:26;;;;;;;5.07;3.75;;;25.10;99.90;;;;;;5241489;28;20046;-62
2022/07/22 05:51:02;;;;;;;5.00;3.58;;;25.10;99.90;;;;;;5221958;28;20039;-62
2022/07/22 05:53:33;;;;;;;7.07;4.13;;;25.10;99.90;;;;;;5239291;28;20028;-61
2022/07/22 05:56:05;;;;;;;4.50;3.65;;;25.00;99.90;;;;;;5238441;28;20021;-61
2022/07/22 05:58:37;;;;;;;4.93;3.53;;;24.90;99.90;;;;;;5222740;28;20130;-61
2022/07/22 06:01:14;;;;;;;4.63;3.40;;;25.00;99.90;;;;;;5248521;28;20020;-61
2022/07/22 06:03:45;;;;;;;5.63;3.75;;;25.00;99.90;;;;;;5221775;28;20039;-61
2022/07/22 06:06:19;;;;;;;4.18;3.42;;;25.10;99.90;;;;;;5235796;28;20044;-60
2022/07/22 06:08:50;;;;;;;4.13;3.72;;;25.20;99.90;;;;;;5261412;28;20028;-61
2022/07/22 06:11:24;;;;;;;6.82;3.90;;;25.30;99.90;;;;;;5241012;28;20211;-62
2022/07/22 06:13:55;;;;;;;5.72;4.03;;;25.40;99.90;;;;;;5242397;28;20024;-61
2022/07/22 06:16:29;;;;;;;4.18;3.40;;;25.30;99.90;;;;;;5242054;28;20025;-61
2022/07/22 06:19:00;;;;;;;6.97;4.23;;;25.30;99.90;;;;;;5223366;28;20058;-61
2022/07/22 06:21:32;;;;;;;5.60;3.83;;;25.40;99.90;;;;;;5242045;28;20321;-61
2022/07/22 06:24:03;;;;;;;6.07;4.43;;;25.50;99.90;;;;;;5256966;28;20578;-60
2022/07/22 06:26:37;;;;;;;6.30;3.85;;;25.40;99.90;;;;;;5262654;28;20032;-61
2022/07/22 06:29:10;;;;;;;4.10;3.22;;;25.50;99.90;;;;;;5241995;28;20054;-61
2022/07/22 06:31:42;;;;;;;4.63;3.95;;;25.60;99.90;;;;;;5209797;28;20044;-60
2022/07/22 06:34:15;;;;;;;4.72;3.88;;;25.50;99.90;;;;;;5239256;28;20039;-61
2022/07/22 06:36:47;;;;;;;5.63;4.30;;;25.50;99.90;;;;;;5250018;28;20280;-62
2022/07/22 06:39:18;;;;;;;6.07;3.72;;;25.60;99.90;;;;;;5236235;28;20258;-62
2022/07/22 06:41:52;;;;;;;6.50;3.72;;;25.80;99.90;;;;;;5271949;28;20016;-62
2022/07/22 06:44:26;;;;;;;4.35;3.88;;;26.00;99.90;;;;;;5272751;28;20034;-61
2022/07/22 06:46:57;;;;;;;5.88;3.92;;;26.00;99.90;;;;;;5260590;28;20028;-60
2022/07/22 06:49:28;;;;;;;4.90;3.67;;;25.90;99.90;;;;;;5238392;28;20028;-61
2022/07/22 06:52:19;;;;;;;5.15;3.42;;;26.00;99.90;;;;;;5222109;28;20036;-62
2022/07/22 06:54:58;;;;;;;7.63;4.53;;;26.10;99.90;;;;;;5239851;28;20031;-61
2022/07/22 06:57:29;;;;;;;4.25;3.58;;;26.20;99.90;;;;;;5237391;28;20016;-62
2022/07/22 07:00:01;;;;;;;4.28;3.70;;;26.10;99.90;;;;;;5216144;28;20051;-61
2022/07/22 07:02:33;;;;;;;3.83;3.22;;;26.30;99.90;;;;;;5236685;28;20023;-62
2022/07/22 07:05:06;;;;;;;4.13;3.55;;;26.50;99.90;;;;;;5226678;28;20048;-61
2022/07/22 07:07:39;;;;;;;6.90;4.18;;;26.70;99.90;;;;;;5229003;28;20234;-62
2022/07/22 07:10:12;;;;;;;4.77;3.70;;;26.80;99.90;;;;;;5238203;28;20042;-61
2022/07/22 07:12:46;;;;;;;5.57;3.50;;;26.70;99.90;;;;;;5223216;28;20040;-60
2022/07/22 07:15:17;;;;;;;5.78;4.03;;;26.80;99.90;;;;;;5239510;28;20491;-61
2022/07/22 07:17:51;;;;;;;6.95;3.97;;;26.90;99.90;;;;;;5239203;28;20034;-62
2022/07/22 07:20:23;;;;;;;4.10;3.58;;;27.10;99.90;;;;;;5220867;28;20024;-61
2022/07/22 07:22:56;;;;;;;4.22;3.42;;;27.00;99.90;;;;;;5220806;28;20024;-61
2022/07/22 07:25:32;;;;;;;6.38;3.95;;;27.10;99.90;;;;;;5240229;28;20202;-61
2022/07/22 07:28:03;;;;;;;5.65;3.33;;;27.50;99.90;;;;;;5233965;28;20221;-62
2022/07/22 07:30:35;;;;;;;4.85;3.45;;;27.70;99.90;;;;;;5238892;28;20298;-61
2022/07/22 07:33:06;;;;;;;5.35;3.95;;;28.10;99.90;;;;;;5240808;28;20030;-64
2022/07/22 07:35:40;;;;;;;7.32;4.10;;;27.60;99.90;;;;;;5243031;28;20308;-61
2022/07/22 07:38:11;;;;;;;6.20;3.97;;;27.80;99.90;;;;;;5238259;28;20034;-62
2022/07/22 07:40:43;;;;;;;4.82;3.60;;;27.90;99.90;;;;;;5238374;28;20033;-61
2022/07/22 07:43:16;;;;;;;5.07;3.83;;;27.80;99.90;;;;;;5220207;28;20012;-62
2022/07/22 07:45:53;;;;;;;4.68;3.70;;;27.70;99.90;;;;;;5236888;28;20042;-62
2022/07/22 07:48:27;;;;;;;6.43;3.75;;;28.00;99.90;;;;;;5223391;28;20026;-62
2022/07/22 07:51:01;;;;;;;4.82;3.70;;;28.00;99.90;;;;;;5239678;28;20024;-62
2022/07/22 07:53:33;;;;;;;5.93;4.10;;;27.90;99.90;;;;;;5257098;28;20024;-62
2022/07/22 07:56:07;;;;;;;5.32;3.70;;;27.90;99.90;;;;;;5263202;28;20030;-61
2022/07/22 07:58:46;;;;;;;4.63;3.78;;;27.60;99.90;;;;;;5222218;28;20029;-62
2022/07/22 08:01:19;;;;;;;5.47;4.30;;;27.50;99.90;;;;;;5239680;28;20034;-61
2022/07/22 08:03:50;;;;;;;6.53;3.83;;;27.80;99.90;;;;;;5239531;28;20028;-61
2022/07/22 08:06:22;;;;;;;4.25;3.40;;;28.10;99.90;;;;;;5228539;28;20057;-62
2022/07/22 08:08:54;;;;;;;3.75;3.33;;;28.40;99.90;;;;;;5243419;28;20028;-62
2022/07/22 08:11:35;;;;;;;5.88;4.00;;;28.80;99.90;;;;;;5221821;28;20047;-61
2022/07/22 08:14:09;;;;;;;4.28;3.45;;;28.50;99.90;;;;;;5256578;28;20058;-61
2022/07/22 08:16:45;;;;;;;4.60;3.83;;;29.60;99.90;;;;;;5226566;28;20032;-60
2022/07/22 08:19:16;;;;;;;4.55;3.38;;;29.30;99.90;;;;;;5258289;28;20039;-61
2022/07/22 08:21:50;;;;;;;5.32;3.38;;;29.60;99.90;;;;;;5261160;28;20028;-64
2022/07/22 08:24:25;;;;;;;3.92;3.45;;;29.70;99.90;;;;;;5263732;28;20024;-63
2022/07/22 08:26:57;;;;;;;5.60;3.83;;;30.50;99.90;;;;;;5238633;28;20043;-61
2022/07/22 08:29:28;;;;;;;4.15;3.60;;;30.20;99.90;;;;;;5223411;28;20029;-61
2022/07/22 08:32:01;;;;;;;5.13;3.05;;;30.20;99.90;;;;;;5240802;28;20041;-60
2022/07/22 08:34:32;;;;;;;4.20;3.33;;;29.70;99.90;;;;;;5238357;28;20046;-61
2022/07/22 08:37:04;;;;;;;4.85;3.45;;;29.90;99.90;;;;;;5239290;28;20042;-63
2022/07/22 08:39:38;;;;;;;3.83;3.20;;;30.60;99.90;;;;;;5221535;28;20385;-62
2022/07/22 08:42:09;;;;;;;5.20;3.45;;;30.60;99.90;;;;;;5240845;28;20205;-61
2022/07/22 08:44:43;;;;;;;4.18;3.15;;;31.60;99.90;;;;;;5239606;28;20028;-63
2022/07/22 08:47:17;;;;;;;;;;;32.60;99.90;;;;;;5224310;28;20034;-62
2022/07/22 08:49:56;;;;;;;3.67;3.00;;;33.10;99.90;;;;;;5235344;28;19900;-62
2022/07/22 08:52:30;;;;;;;3.55;3.20;;;32.40;99.90;;;;;;5225153;28;20740;-63
2022/07/22 08:55:07;;;;;;;4.88;3.70;;;32.40;99.90;;;;;;5218703;28;20550;-61
2022/07/22 08:57:46;;;;;;;3.63;3.03;;;31.40;99.90;;;;;;5239661;28;20024;-61
2022/07/22 09:00:25;;;;;;;4.28;3.78;;;31.40;99.90;;;;;;5244054;28;20040;-62
2022/07/22 09:02:56;;;;;;;3.70;3.40;;;31.60;99.90;;;;;;5226518;28;20229;-63
2022/07/22 09:05:36;;;;;;;3.47;3.10;;;31.50;99.90;;;;;;5216026;28;20222;-62
2022/07/22 09:08:07;;;;;;;3.83;3.42;;;31.70;99.90;;;;;;5243667;28;20020;-62
2022/07/22 09:10:41;;;;;;;4.75;3.72;;;31.60;99.90;;;;;;5243646;28;20029;-62
2022/07/22 09:13:14;;;;;;;5.18;3.60;;;32.40;99.90;;;;;;5241310;28;20035;-62
2022/07/22 09:15:54;;;;;;;3.72;3.38;;;31.30;99.90;;;;;;5240323;28;20038;-62
2022/07/22 09:18:50;;;;;;;4.25;3.50;;;31.50;99.90;;;;;;5223975;28;20024;-61
2022/07/22 09:21:23;;;;;;;3.90;3.20;;;31.80;99.90;;;;;;5244123;28;20012;-63
2022/07/22 09:23:54;;;;;;;3.78;3.15;;;31.80;99.90;;;;;;5237775;28;20320;-62
2022/07/22 09:26:38;;;;;;;3.22;2.70;;;32.40;99.90;;;;;;5239536;28;20209;-63
2022/07/22 09:29:12;;;;;;;3.88;3.20;;;33.70;99.90;;;;;;5243046;28;20035;-62
2022/07/22 09:31:57;;;;;;;3.53;3.22;;;33.40;99.90;;;;;;5242927;28;20068;-62
2022/07/22 09:34:34;;;;;;;4.50;3.45;;;34.00;99.90;;;;;;5241534;28;20042;-62
2022/07/22 09:37:11;;;;;;;4.03;3.60;;;32.40;99.90;;;;;;5225406;28;20048;-61
2022/07/22 09:39:42;;;;;;;3.38;2.97;;;31.90;99.90;;;;;;5245883;28;20199;-62
2022/07/22 09:42:16;;;;;;;4.15;3.33;;;32.40;99.90;;;;;;5241765;28;20032;-62
2022/07/22 09:44:50;;;;;;;4.03;3.63;;;32.50;99.90;;;;;;5242839;28;20294;-61
2022/07/22 09:47:28;;;;;;;4.18;3.25;;;34.00;99.90;;;;;;5246463;28;20422;-61
2022/07/22 09:50:05;;;;;;;5.70;3.13;;;33.10;99.90;;;;;;5222308;28;20017;-61
2022/07/22 09:52:40;;;;;;;3.88;3.47;;;31.80;99.90;;;;;;5202875;28;20040;-62
2022/07/22 09:55:16;;;;;;;5.10;4.00;;;32.60;99.90;;;;;;5224173;28;20345;-62
2022/07/22 09:57:49;;;;;;;5.45;3.40;;;33.70;99.90;;;;;;5242226;28;20030;-63
2022/07/22 10:00:24;;;;;;;3.60;3.30;;;34.80;99.90;;;;;;5220768;28;20237;-62
2022/07/22 10:02:58;;;;;;;4.60;3.13;;;34.90;99.90;;;;;;5229815;28;20042;-62
2022/07/22 10:05:35;;;;;;;4.25;3.55;;;35.70;99.90;;;;;;5221281;28;20054;-63
2022/07/22 10:08:08;;;;;;;5.88;3.38;;;36.30;99.90;;;;;;5244033;28;20031;-63
2022/07/22 10:10:39;;;;;;;3.97;3.15;;;36.30;99.90;;;;;;5222384;28;20028;-63
2022/07/22 10:13:12;;;;;;;5.35;3.38;;;36.00;99.90;;;;;;5206114;28;20039;-62
2022/07/22 10:15:47;;;;;;;5.18;3.50;;;36.00;99.90;;;;;;5241202;28;20034;-62
2022/07/22 10:18:19;;;;;;;4.90;3.08;;;34.90;99.90;;;;;;5237907;28;20425;-65
2022/07/22 10:21:04;;;;;;;3.60;3.22;;;34.20;99.90;;;;;;5214167;28;20021;-61
2022/07/22 10:23:55;;;;;;;3.20;2.90;;;34.30;99.90;;;;;;5215436;28;20206;-62
2022/07/22 10:26:51;;;;;;;4.40;2.75;;;35.40;99.90;;;;;;5240702;28;20038;-62
2022/07/22 10:29:47;;;;;;;4.20;3.50;;;35.80;99.90;;;;;;5222083;28;20392;-63
2022/07/22 10:32:18;;;;;;;3.72;3.20;;;35.50;99.90;;;;;;5220554;28;20029;-63
2022/07/22 10:35:06;;;;;;;3.42;3.10;;;35.20;99.90;;;;;;5238297;28;20023;-63
2022/07/22 10:37:43;;;;;;;3.75;3.25;;;35.60;99.90;;;;;;5223101;28;20221;-62
2022/07/22 10:40:25;;;;;;;3.40;3.00;;;36.40;99.90;;;;;;5238618;28;20037;-62
2022/07/22 10:42:59;;;;;;;3.53;3.20;;;37.00;99.90;;;;;;5242001;28;20025;-63
2022/07/22 10:45:34;;;;;;;;;;;36.40;99.90;;;;;;5224912;28;20051;-63
2022/07/22 10:48:10;;;;;;;6.35;3.38;;;35.90;99.90;;;;;;5238875;28;19900;-62
2022/07/22 10:50:55;;;;;;;3.45;3.15;;;37.20;99.90;;;;;;5231002;28;20193;-63
2022/07/22 10:53:47;;;;;;;4.30;3.22;;;38.30;99.90;;;;;;5243237;28;20050;-62
2022/07/22 10:56:26;;;;;;;3.45;2.78;;;37.40;99.90;;;;;;5239155;28;20024;-62
2022/07/22 10:59:01;;;;;;;4.15;3.72;;;38.50;99.90;;;;;;5240404;28;20020;-62
2022/07/22 11:01:36;;;;;;;4.32;3.83;;;40.80;99.90;;;;;;5240486;28;20031;-63
2022/07/22 11:04:10;;;;;;;3.03;2.80;;;42.50;99.90;;;;;;5227012;28;20050;-63
2022/07/22 11:06:47;;;;;;;3.85;3.30;;;43.50;99.90;;;;;;5209496;28;20052;-66
2022/07/22 11:09:30;;;;;;;5.13;2.72;;;44.00;99.30;;;;;;5240410;28;20016;-63
2022/07/22 11:12:15;;;;;;;4.57;3.25;;;44.50;97.50;;;;;;5203387;28;20036;-63
2022/07/22 11:14:46;;;;;;;4.20;3.40;;;42.80;97.20;;;;;;5221988;28;20038;-63
2022/07/22 11:17:20;;;;;;;3.85;3.00;;;41.90;97.90;;;;;;5240046;28;20028;-64
2022/07/22 11:19:52;;;;;;;3.67;3.38;;;43.10;97.00;;;;;;5219185;28;20030;-63
2022/07/22 11:22:23;;;;;;;3.35;3.03;;;43.60;95.90;;;;;;5235940;28;20033;-63
2022/07/22 11:24:54;;;;;;;3.83;3.53;;;44.10;96.00;;;;;;5238072;28;20027;-64
2022/07/22 11:27:25;;;;;;;3.13;2.90;;;44.60;95.00;;;;;;5239410;28;20020;-64
2022/07/22 11:29:59;;;;;;;3.53;3.22;;;46.10;93.60;;;;;;5218725;28;20050;-63
2022/07/22 11:32:41;;;;;;;4.80;4.20;;;45.70;93.20;;;;;;5237782;28;20051;-63
2022/07/22 11:35:15;;;;;;;3.90;3.50;;;43.70;93.10;;;;;;5238838;28;20018;-62
2022/07/22 11:37:58;;;;;;;3.85;3.45;;;43.70;93.30;;;;;;5238185;28;20038;-64
2022/07/22 11:40:36;;;;;;;4.20;3.22;;;44.10;93.20;;;;;;5239077;28;20020;-62
2022/07/22 11:43:08;;;;;;;4.65;3.45;;;44.50;92.70;;;;;;5220252;28;20025;-63
2022/07/22 11:45:56;;;;;;;3.97;3.42;;;45.20;92.20;;;;;;5236901;28;20312;-62
2022/07/22 11:48:30;;;;;;;4.50;3.30;;;45.50;91.60;;;;;;5236404;28;20048;-61
2022/07/22 11:51:03;;;;;;;4.43;4.03;;;46.10;91.60;;;;;;5237862;28;20425;-63
2022/07/22 11:53:34;;;;;;;3.70;3.40;;;45.10;91.20;;;;;;5219029;28;20051;-63
2022/07/22 11:56:10;;;;;;;4.93;3.60;;;45.40;90.60;;;;;;5222032;28;20254;-62
2022/07/22 11:58:54;;;;;;;6.22;3.63;;;45.70;90.80;;;;;;5257157;28;20020;-62
2022/07/22 12:01:28;;;;;;;4.68;3.28;;;45.90;90.60;;;;;;5235999;28;20336;-64
2022/07/22 12:04:10;;;;;;;3.85;3.55;;;46.80;90.00;;;;;;5238718;28;20040;-62
2022/07/22 12:06:45;;;;;;;3.80;3.50;;;46.10;89.00;;;;;;5209286;28;20054;-62
2022/07/22 12:09:24;;;;;;;4.18;3.78;;;45.80;88.90;;;;;;5218298;28;20032;-65
2022/07/22 12:11:58;;;;;;;3.67;3.22;;;44.60;89.20;;;;;;5236964;28;20051;-65
2022/07/22 12:14:33;;;;;;;4.22;3.83;;;44.70;90.20;;;;;;5202312;28;20032;-63
2022/07/22 12:17:10;;;;;;;4.15;3.75;;;44.20;89.10;;;;;;5234026;28;20020;-63
2022/07/22 12:19:45;;;;;;;3.83;3.47;;;44.80;90.40;;;;;;5235959;28;20039;-63
2022/07/22 12:22:21;;;;;;;3.67;3.33;;;45.60;89.90;;;;;;5242737;28;20023;-63
2022/07/22 12:25:01;;;;;;;4.95;3.70;;;47.30;87.60;;;;;;5241680;28;20310;-62
2022/07/22 12:27:37;;;;;;;7.80;5.25;;;48.40;87.40;;;;;;5225223;28;20016;-62
2022/07/22 12:30:17;;;;;;;4.38;3.97;;;49.10;84.70;;;;;;5223578;28;20039;-61
2022/07/22 12:32:52;;;;;;;3.92;3.45;;;48.10;84.00;;;;;;5244885;28;20028;-62
2022/07/22 12:35:27;;;;;;;4.18;3.78;;;46.80;83.40;;;;;;5264867;28;20027;-61
2022/07/22 12:38:06;;;;;;;3.83;3.53;;;46.40;86.50;;;;;;5228626;28;20030;-64
2022/07/22 12:40:40;;;;;;;3.80;3.45;;;47.70;83.50;;;;;;5264855;28;20019;-63
2022/07/22 12:43:11;;;;;;;3.83;3.53;;;47.00;85.70;;;;;;5260627;28;20028;-62
2022/07/22 12:45:42;;;;;;;4.28;3.72;;;48.30;83.40;;;;;;5240647;28;20221;-63
2022/07/22 12:48:17;;;;;;;4.03;3.58;;;47.60;82.10;;;;;;5240768;28;20216;-63
2022/07/22 12:50:57;;;;;;;3.90;3.60;;;45.90;85.40;;;;;;5243388;28;20020;-62
2022/07/22 12:53:33;;;;;;;5.80;3.80;;;47.60;83.50;;;;;;5224280;28;20039;-63
2022/07/22 12:56:10;;;;;;;3.65;3.35;;;47.00;84.60;;;;;;5224211;28;20021;-64
2022/07/22 12:58:41;;;;;;;4.03;3.60;;;46.00;85.40;;;;;;5207651;28;20314;-64
2022/07/22 13:01:15;;;;;;;4.07;3.50;;;46.10;84.00;;;;;;5241458;28;20183;-63
2022/07/22 13:03:49;;;;;;;6.07;3.78;;;46.90;83.10;;;;;;5222084;28;20029;-63
2022/07/22 13:06:20;;;;;;;4.38;3.97;;;48.00;82.10;;;;;;5230152;28;20041;-62
2022/07/22 13:08:51;;;;;;;4.22;3.60;;;47.70;80.90;;;;;;5240653;28;20201;-62
2022/07/22 13:11:23;;;;;;;3.70;3.40;;;46.50;82.20;;;;;;5222995;28;20028;-61
2022/07/22 13:13:54;;;;;;;5.20;3.25;;;46.90;82.10;;;;;;5221177;28;20054;-65
2022/07/22 13:16:29;;;;;;;4.05;3.67;;;45.90;82.40;;;;;;5237548;28;20046;-62
2022/07/22 13:19:05;;;;;;;4.00;3.60;;;46.20;83.30;;;;;;5223510;28;20031;-63
2022/07/22 13:21:38;;;;;;;4.00;3.60;;;47.10;82.00;;;;;;5241918;28;20031;-63
2022/07/22 13:24:11;;;;;;;4.38;3.97;;;47.30;81.20;;;;;;5242555;28;20028;-64